Williams, AZ

9:16 PM MST on December 05, 2016 (GMT -0700)
Williams, AZ | | Change Station

Elev 7100 ft 35.23 °N, 112.17 °W | Updated 17 seconds ago

Partly Cloudy
Partly Cloudy
35.2 °F
Feels Like 35 °F
N
0.0
Wind Variable Wind from ESE
Gusts 3.0 mph

Today
High -- | Low -- °F
--% Chance of Precip.
Yesterday
High -- | Low -- °F
Precip. -- in
Pressure 29.94 in
Visibility 10.0 miles
Clouds Few 11000 ft
Windchill 35 °F
Dew Point 18 °F
Humidity 50%
Rainfall 0.00 in
Snow Depth Not available.
7:22 AM 5:16 PM
Waxing Crescent, 37% visible
METAR KFLG 060357Z AUTO 00000KT 10SM FEW110 M02/M08 A2999 RMK AO2 SLP138 T10171078
Pressure 29.94 in
Visibility 10.0 miles
Clouds Few 11000 ft
Windchill 35 °F
Dew Point 18 °F
Humidity 50%
Rainfall 0.00 in
Snow Depth Not available.
7:22 AM 5:16 PM
Waxing Crescent, 37% visible
METAR KFLG 060357Z AUTO 00000KT 10SM FEW110 M02/M08 A2999 RMK AO2 SLP138 T10171078

10-Day Weather Forecast

Almanac

Astronomy

Dec. 05, 2016 Rise Set
Actual Time
Civil Twilight
Nautical Twilight
Astronomical Twilight
Moon
Length of Visible Light
Length of Day
Tomorrow will be .
, % of the Moon is Illuminated

Today's Extremes

State Highs State Lows

Community

WunderPhotos

Upload Photos

1,955,917 photos uploaded!

WunderBlog® & News

Nearby

Air Quality

  Air Quality AQ Index Pollutant
Not available.

Snow Depth

Station Depth Elevation

Earthquake Activity

City Distance Mag. Time & Date
Minimum magnitude displayed is 2.5.

Coastal Water Temperatures

Place Temperature

Stations

Nearby Weather Stations

Station Location Temp. Windchill Dew Point Humidity Wind Precip. Elev Updated Type
                   

Watches & Warnings

There are currently no watches in effect.